createdAt,value
2018-01-28T00:02:18.205Z,14.20
2018-01-28T00:04:44.525Z,14.77
2018-01-28T00:07:10.820Z,11.47
2018-01-28T00:09:37.883Z,12.23
2018-01-28T00:12:04.938Z,12.70
2018-01-28T00:14:31.286Z,12.67
2018-01-28T00:16:57.594Z,11.90
2018-01-28T00:19:24.687Z,12.07
2018-01-28T00:21:51.815Z,11.77
2018-01-28T00:24:18.129Z,12.27
2018-01-28T00:26:44.455Z,12.40
2018-01-28T00:29:10.822Z,11.00
2018-01-28T00:31:37.095Z,13.37
2018-01-28T00:34:04.160Z,12.63
2018-01-28T00:36:30.451Z,12.60
2018-01-28T00:38:56.752Z,11.47
2018-01-28T00:41:23.050Z,12.77
2018-01-28T00:43:49.600Z,12.23
2018-01-28T00:46:15.879Z,11.80
2018-01-28T00:48:42.943Z,11.90
2018-01-28T00:51:09.975Z,13.33
2018-01-28T00:53:37.038Z,12.00
2018-01-28T00:56:04.064Z,12.37
2018-01-28T00:58:30.356Z,12.10
2018-01-28T01:00:56.665Z,14.60
2018-01-28T01:03:23.000Z,11.07
2018-01-28T01:05:49.284Z,11.80
2018-01-28T01:08:16.354Z,11.87
2018-01-28T01:10:43.404Z,13.60
2018-01-28T01:13:10.444Z,13.00
2018-01-28T01:15:37.475Z,13.60
2018-01-28T01:18:03.756Z,11.50
2018-01-28T01:20:30.121Z,14.07
2018-01-28T01:22:56.395Z,13.90
2018-01-28T01:25:23.439Z,13.00
2018-01-28T01:27:50.496Z,15.43
2018-01-28T01:30:16.810Z,13.23
2018-01-28T01:32:43.842Z,17.57
2018-01-28T01:35:10.877Z,12.90
2018-01-28T01:37:37.157Z,13.47
2018-01-28T01:40:03.452Z,13.87
2018-01-28T01:42:30.506Z,13.67
2018-01-28T01:44:57.551Z,12.20
2018-01-28T01:47:25.616Z,12.03
2018-01-28T01:49:51.908Z,13.50
2018-01-28T01:52:18.190Z,11.83
2018-01-28T01:54:44.521Z,16.00
2018-01-28T01:57:10.861Z,12.00
2018-01-28T01:59:37.156Z,12.93
2018-01-28T02:02:03.436Z,13.57
2018-01-28T02:04:29.724Z,13.00
2018-01-28T02:06:56.880Z,13.77
2018-01-28T02:09:23.188Z,14.90
2018-01-28T02:11:49.458Z,15.70
2018-01-28T02:14:15.759Z,13.53
2018-01-28T02:16:42.056Z,15.30
2018-01-28T02:19:08.380Z,14.80
2018-01-28T02:21:34.676Z,16.63
2018-01-28T02:24:01.227Z,14.40
2018-01-28T02:26:27.523Z,14.03
2018-01-28T02:28:54.567Z,13.90
2018-01-28T02:31:21.629Z,12.33
2018-01-28T02:33:47.914Z,13.30
2018-01-28T02:36:14.237Z,14.00
2018-01-28T02:38:40.597Z,13.27
2018-01-28T02:41:07.685Z,13.90
2018-01-28T02:43:33.968Z,13.90
2018-01-28T02:46:00.285Z,12.47
2018-01-28T02:48:26.571Z,13.10
2018-01-28T02:50:52.871Z,13.03
2018-01-28T02:53:19.928Z,11.90
2018-01-28T02:55:46.280Z,11.03
2018-01-28T02:58:12.565Z,10.40
2018-01-28T03:00:38.890Z,11.40
2018-01-28T03:03:05.193Z,9.30
2018-01-28T03:05:31.484Z,9.13
2018-01-28T03:07:57.778Z,9.37
2018-01-28T03:10:24.884Z,8.73
2018-01-28T03:12:51.208Z,9.60
2018-01-28T03:15:17.509Z,9.33
2018-01-28T03:17:44.586Z,9.63
2018-01-28T03:20:10.917Z,11.03
2018-01-28T03:22:37.201Z,11.10
2018-01-28T03:25:03.505Z,10.07
2018-01-28T03:27:29.848Z,9.93
2018-01-28T03:29:56.163Z,9.67
2018-01-28T03:32:22.541Z,9.57
2018-01-28T03:34:49.605Z,10.53
2018-01-28T03:37:15.917Z,9.77
2018-01-28T03:39:43.000Z,10.30
2018-01-28T03:42:09.323Z,9.80
2018-01-28T03:44:35.607Z,9.37
2018-01-28T03:47:01.921Z,8.80
2018-01-28T03:49:28.223Z,9.37
2018-01-28T03:51:54.528Z,8.30
2018-01-28T03:54:21.556Z,7.07
2018-01-28T03:56:48.596Z,8.70
2018-01-28T03:59:14.895Z,7.17
2018-01-28T04:01:41.645Z,7.33
2018-01-28T04:04:07.933Z,8.07
2018-01-28T04:06:34.238Z,7.63
2018-01-28T04:09:00.547Z,7.10
2018-01-28T04:11:26.837Z,7.13
2018-01-28T04:13:53.120Z,9.13
2018-01-28T04:16:20.159Z,7.60
2018-01-28T04:18:47.201Z,8.10
2018-01-28T04:21:13.477Z,8.90
2018-01-28T04:23:39.801Z,8.60
2018-01-28T04:26:06.069Z,8.33
2018-01-28T04:28:32.369Z,9.83
2018-01-28T04:30:58.656Z,9.37
2018-01-28T04:33:31.972Z,8.93
2018-01-28T04:35:58.288Z,9.73
2018-01-28T04:38:25.326Z,9.07
2018-01-28T04:40:51.600Z,9.57
2018-01-28T04:43:17.879Z,10.50
2018-01-28T04:45:44.963Z,9.90
2018-01-28T04:48:12.007Z,10.73
2018-01-28T04:50:38.319Z,11.03
2018-01-28T04:53:04.646Z,12.10
2018-01-28T04:55:30.924Z,10.70
2018-01-28T04:57:57.249Z,11.33
2018-01-28T05:00:23.563Z,11.53
2018-01-28T05:02:49.919Z,12.30
2018-01-28T05:05:16.236Z,12.97
2018-01-28T05:07:42.549Z,13.53
2018-01-28T05:10:08.865Z,12.27
2018-01-28T05:12:35.907Z,12.30
2018-01-28T05:15:02.229Z,14.77
2018-01-28T05:17:29.251Z,13.07
2018-01-28T05:19:55.610Z,13.80
2018-01-28T05:22:22.652Z,13.33
2018-01-28T05:24:49.692Z,14.67
2018-01-28T05:27:15.995Z,16.70
2018-01-28T05:29:42.301Z,18.33
2018-01-28T05:32:08.600Z,15.60
2018-01-28T05:34:35.631Z,16.70
2018-01-28T05:37:01.910Z,14.53
2018-01-28T05:39:28.195Z,15.43
2018-01-28T05:41:55.226Z,18.00
2018-01-28T05:44:21.524Z,14.30
2018-01-28T05:46:47.811Z,14.97
2018-01-28T05:49:14.842Z,16.03
2018-01-28T05:51:41.875Z,17.70
2018-01-28T05:54:08.159Z,17.47
2018-01-28T05:56:34.442Z,19.93
2018-01-28T05:59:00.726Z,17.40
2018-01-28T06:01:27.015Z,19.90
2018-01-28T06:03:54.036Z,17.00
2018-01-28T06:06:20.340Z,18.83
2018-01-28T06:08:46.652Z,17.60
2018-01-28T06:11:12.938Z,19.47
2018-01-28T06:13:39.224Z,16.47
2018-01-28T06:16:05.558Z,18.50
2018-01-28T06:18:31.886Z,19.10
2018-01-28T06:20:58.230Z,18.00
2018-01-28T06:23:24.598Z,17.03
2018-01-28T06:25:51.653Z,15.93
2018-01-28T06:28:18.676Z,15.63
2018-01-28T06:30:44.975Z,15.90
2018-01-28T06:33:11.260Z,21.23
2018-01-28T06:35:38.312Z,17.60
2018-01-28T06:38:05.344Z,18.50
2018-01-28T06:40:31.670Z,14.40
2018-01-28T06:42:57.952Z,13.87
2018-01-28T06:45:24.227Z,16.60
2018-01-28T06:47:52.052Z,18.63
2018-01-28T06:50:18.313Z,17.27
2018-01-28T06:52:44.619Z,12.43
2018-01-28T06:55:10.892Z,15.60
2018-01-28T06:57:37.233Z,17.17
2018-01-28T07:00:04.274Z,15.30
2018-01-28T07:02:31.319Z,14.47
2018-01-28T07:04:58.345Z,20.00
2018-01-28T07:07:24.624Z,18.00
2018-01-28T07:09:50.903Z,16.07
2018-01-28T07:12:17.179Z,15.13
2018-01-28T07:14:43.490Z,13.23
2018-01-28T07:17:10.534Z,17.43
2018-01-28T07:19:37.567Z,15.93
2018-01-28T07:22:04.625Z,15.87
2018-01-28T07:24:31.662Z,16.53
2018-01-28T07:26:58.713Z,16.43
2018-01-28T07:29:25.770Z,17.70
2018-01-28T07:31:52.817Z,15.87
2018-01-28T07:34:19.864Z,18.13
2018-01-28T07:36:46.917Z,16.43
2018-01-28T07:39:13.939Z,19.90
2018-01-28T07:41:40.229Z,17.60
2018-01-28T07:44:06.557Z,26.63
2018-01-28T07:46:32.827Z,13.17
2018-01-28T07:48:59.115Z,18.37
2018-01-28T07:51:25.384Z,13.93
2018-01-28T07:53:51.700Z,20.03
2018-01-28T07:56:18.003Z,17.03
2018-01-28T07:58:44.332Z,16.07
2018-01-28T08:01:10.601Z,17.67
2018-01-28T08:03:36.883Z,18.37
2018-01-28T08:06:03.205Z,15.27
2018-01-28T08:08:31.462Z,12.97
2018-01-28T08:11:02.480Z,18.50
2018-01-28T08:13:45.440Z,19.73
2018-01-28T08:16:11.728Z,17.90
2018-01-28T08:18:38.014Z,16.17
2018-01-28T08:21:04.304Z,15.67
2018-01-28T08:23:30.633Z,14.50
2018-01-28T08:25:56.916Z,14.90
2018-01-28T08:28:23.225Z,20.80
2018-01-28T08:30:49.753Z,19.00
2018-01-28T08:33:16.157Z,16.03
2018-01-28T08:35:42.498Z,17.57
2018-01-28T08:38:09.548Z,16.93
2018-01-28T08:40:35.836Z,21.63
2018-01-28T08:43:02.141Z,14.77
2018-01-28T08:45:28.477Z,16.00
2018-01-28T08:47:55.097Z,14.87
2018-01-28T08:50:21.400Z,18.67
2018-01-28T08:52:48.549Z,16.73
2018-01-28T08:55:15.647Z,13.63
2018-01-28T08:57:42.861Z,21.60
2018-01-28T09:00:10.839Z,14.53
2018-01-28T09:02:37.197Z,16.10
2018-01-28T09:05:03.733Z,21.13
2018-01-28T09:07:30.770Z,15.40
2018-01-28T09:09:57.104Z,18.20
2018-01-28T09:12:23.422Z,19.73
2018-01-28T09:14:49.724Z,16.73
2018-01-28T09:17:16.768Z,17.93
2018-01-28T09:19:43.836Z,16.50
2018-01-28T09:22:10.246Z,20.27
2018-01-28T09:24:37.325Z,14.67
2018-01-28T09:27:03.637Z,17.60
2018-01-28T09:29:30.131Z,16.47
2018-01-28T09:31:57.885Z,16.87
2018-01-28T09:34:24.179Z,18.60
2018-01-28T09:36:50.521Z,18.30
2018-01-28T09:39:16.828Z,14.90
2018-01-28T09:41:43.165Z,18.53
2018-01-28T09:44:09.483Z,23.13
2018-01-28T09:46:35.877Z,11.00
2018-01-28T09:49:02.173Z,16.13
2018-01-28T09:51:28.892Z,19.23
2018-01-28T09:53:55.177Z,16.43
2018-01-28T09:56:21.462Z,16.90
2018-01-28T09:58:47.806Z,16.10
2018-01-28T10:01:14.137Z,17.70
2018-01-28T10:03:40.461Z,16.13
2018-01-28T10:06:06.808Z,19.93
2018-01-28T10:08:33.161Z,17.23
2018-01-28T10:11:00.376Z,19.03
2018-01-28T10:13:26.684Z,19.40
2018-01-28T10:15:52.981Z,18.43
2018-01-28T10:18:19.308Z,15.10
2018-01-28T10:20:45.617Z,19.90
2018-01-28T10:23:11.894Z,17.87
2018-01-28T10:25:38.925Z,20.70
2018-01-28T10:28:05.972Z,15.13
2018-01-28T10:30:33.049Z,12.23
2018-01-28T10:32:59.322Z,19.00
2018-01-28T10:35:25.608Z,15.83
2018-01-28T10:37:51.909Z,19.03
2018-01-28T10:40:18.959Z,15.23
2018-01-28T10:42:46.034Z,16.13
2018-01-28T10:45:12.352Z,19.60
2018-01-28T10:47:38.648Z,19.23
2018-01-28T10:50:04.940Z,17.03
2018-01-28T10:52:31.249Z,13.50
2018-01-28T10:54:57.527Z,17.93
2018-01-28T10:57:23.846Z,20.43
2018-01-28T10:59:50.178Z,18.30
2018-01-28T11:02:16.595Z,15.33
2018-01-28T11:04:42.958Z,15.23
2018-01-28T11:07:10.026Z,18.90
2018-01-28T11:09:36.333Z,15.37
2018-01-28T11:12:02.643Z,13.33
2018-01-28T11:14:28.944Z,15.57
2018-01-28T11:16:55.273Z,16.33
2018-01-28T11:19:21.591Z,14.17
2018-01-28T11:21:47.921Z,16.37
2018-01-28T11:24:14.958Z,17.50
2018-01-28T11:26:41.978Z,13.60
2018-01-28T11:29:09.040Z,10.90
2018-01-28T11:31:36.060Z,16.40
2018-01-28T11:34:02.353Z,14.20
2018-01-28T11:36:28.624Z,14.57
2018-01-28T11:38:54.939Z,11.40
2018-01-28T11:41:21.251Z,17.03
2018-01-28T11:43:47.583Z,14.83
2018-01-28T11:46:13.875Z,10.77
2018-01-28T11:48:40.918Z,19.47
2018-01-28T11:51:07.977Z,17.40
2018-01-28T11:53:35.066Z,15.37
2018-01-28T11:56:01.397Z,16.60
2018-01-28T11:58:27.696Z,15.53
2018-01-28T12:00:53.981Z,16.37
2018-01-28T12:03:20.260Z,12.97
2018-01-28T12:05:46.551Z,17.57
2018-01-28T12:08:12.837Z,17.73
2018-01-28T12:10:39.120Z,16.27
2018-01-28T12:13:06.146Z,24.70
2018-01-28T12:15:32.526Z,14.87
2018-01-28T12:17:58.809Z,17.60
2018-01-28T12:20:25.092Z,19.00
2018-01-28T12:22:51.438Z,16.20
2018-01-28T12:25:17.799Z,20.17
2018-01-28T12:27:44.092Z,17.40
2018-01-28T12:30:10.402Z,20.23
2018-01-28T12:32:36.708Z,20.97
2018-01-28T12:35:03.766Z,19.37
2018-01-28T12:37:30.796Z,15.27
2018-01-28T12:39:57.905Z,19.30
2018-01-28T12:42:24.210Z,17.73
2018-01-28T12:44:50.526Z,21.00
2018-01-28T12:47:17.925Z,16.33
2018-01-28T12:49:44.295Z,16.87
2018-01-28T12:52:11.364Z,18.00
2018-01-28T12:54:37.667Z,17.30
2018-01-28T12:57:04.696Z,15.17
2018-01-28T12:59:30.985Z,18.30
2018-01-28T13:01:57.314Z,21.20
2018-01-28T13:04:23.671Z,17.33
2018-01-28T13:06:49.994Z,16.50
2018-01-28T13:09:16.278Z,17.60
2018-01-28T13:11:42.652Z,14.77
2018-01-28T13:14:08.971Z,17.23
2018-01-28T13:16:35.272Z,18.40
2018-01-28T13:19:02.357Z,19.33
2018-01-28T13:21:28.669Z,15.43
2018-01-28T13:23:54.959Z,11.97
2018-01-28T13:26:22.053Z,19.37
2018-01-28T13:28:48.402Z,20.70
2018-01-28T13:31:14.744Z,19.30
2018-01-28T13:33:41.112Z,16.73
2018-01-28T13:36:08.161Z,21.23
2018-01-28T13:38:34.449Z,17.90
2018-01-28T13:41:00.825Z,19.00
2018-01-28T13:43:27.915Z,14.37
2018-01-28T13:45:54.186Z,13.90
2018-01-28T13:48:20.486Z,20.50
2018-01-28T13:50:46.839Z,15.90
2018-01-28T13:53:13.270Z,23.10
2018-01-28T13:55:39.728Z,18.40
2018-01-28T13:58:06.122Z,20.40
2018-01-28T14:00:33.243Z,22.13
2018-01-28T14:02:59.616Z,14.97
2018-01-28T14:05:26.660Z,18.47
2018-01-28T14:07:52.953Z,17.03
2018-01-28T14:10:19.231Z,16.23
2018-01-28T14:12:46.348Z,14.20
2018-01-28T14:15:12.683Z,19.27
2018-01-28T14:17:39.045Z,19.73
2018-01-28T14:20:06.122Z,18.00
2018-01-28T14:22:32.455Z,20.93
2018-01-28T14:24:58.804Z,18.83
2018-01-28T14:27:25.192Z,22.37
2018-01-28T14:29:52.254Z,18.53
2018-01-28T14:32:19.383Z,26.57
2018-01-28T14:34:46.472Z,16.13
2018-01-28T14:37:12.784Z,18.27
2018-01-28T14:39:39.138Z,24.07
2018-01-28T14:42:05.585Z,17.00
2018-01-28T14:44:31.887Z,18.20
2018-01-28T14:46:58.228Z,16.77
2018-01-28T14:49:24.594Z,20.47
2018-01-28T14:51:50.979Z,17.57
2018-01-28T14:54:17.367Z,19.90
2018-01-28T14:56:44.477Z,23.67
2018-01-28T14:59:10.829Z,18.93
2018-01-28T15:01:37.940Z,19.30
2018-01-28T15:04:04.307Z,18.50
2018-01-28T15:06:30.608Z,21.13
2018-01-28T15:08:57.451Z,18.13
2018-01-28T15:11:23.958Z,17.80
2018-01-28T15:13:50.986Z,22.30
2018-01-28T15:16:18.072Z,19.27
2018-01-28T15:18:44.507Z,14.87
2018-01-28T15:21:10.784Z,23.77
2018-01-28T15:23:37.123Z,19.47
2018-01-28T15:26:04.189Z,26.40
2018-01-28T15:28:31.214Z,18.17
2018-01-28T15:30:58.306Z,27.83
2018-01-28T15:33:24.613Z,26.30
2018-01-28T15:35:51.700Z,17.40
2018-01-28T15:38:18.039Z,19.30
2018-01-28T15:40:44.342Z,21.03
2018-01-28T15:43:10.695Z,22.37
2018-01-28T15:45:37.004Z,22.07
2018-01-28T15:48:03.358Z,15.83
2018-01-28T15:50:29.661Z,22.20
2018-01-28T15:52:55.951Z,23.90
2018-01-28T15:55:22.308Z,23.03
2018-01-28T15:57:49.359Z,20.57
2018-01-28T16:00:15.691Z,20.53
2018-01-28T16:02:42.012Z,22.43
2018-01-28T16:05:09.133Z,18.83
2018-01-28T16:07:35.481Z,27.73
2018-01-28T16:10:02.565Z,20.03
2018-01-28T16:12:28.840Z,18.97
2018-01-28T16:14:55.128Z,19.10
2018-01-28T16:17:21.462Z,20.30
2018-01-28T16:19:47.766Z,20.57
2018-01-28T16:22:14.793Z,17.73
2018-01-28T16:24:41.893Z,20.47
2018-01-28T16:27:08.244Z,16.00
2018-01-28T16:29:34.607Z,24.57
2018-01-28T16:32:01.666Z,18.93
2018-01-28T16:34:28.718Z,22.27
2018-01-28T16:36:55.008Z,21.10
2018-01-28T16:39:21.772Z,20.50
2018-01-28T16:41:48.958Z,18.83
2018-01-28T16:44:15.278Z,25.00
2018-01-28T16:46:41.616Z,22.90
2018-01-28T16:49:07.962Z,22.00
2018-01-28T16:51:34.303Z,21.30
2018-01-28T16:54:00.642Z,14.40
2018-01-28T16:56:26.988Z,15.80
2018-01-28T16:58:53.290Z,18.57
2018-01-28T17:01:19.673Z,14.97
2018-01-28T17:03:45.984Z,17.63
2018-01-28T17:06:12.301Z,18.93
2018-01-28T17:08:38.589Z,20.13
2018-01-28T17:11:04.957Z,27.47
2018-01-28T17:13:31.276Z,21.00
2018-01-28T17:15:57.588Z,18.63
2018-01-28T17:18:24.007Z,21.83
2018-01-28T17:20:50.513Z,18.30
2018-01-28T17:23:16.870Z,20.20
2018-01-28T17:25:43.205Z,21.53
2018-01-28T17:28:09.513Z,20.03
2018-01-28T17:30:35.907Z,16.97
2018-01-28T17:33:02.237Z,17.17
2018-01-28T17:35:34.874Z,21.17
2018-01-28T17:38:01.244Z,18.97
2018-01-28T17:40:27.645Z,16.83
2018-01-28T17:42:53.959Z,18.60
2018-01-28T17:45:20.352Z,21.83
2018-01-28T17:47:46.685Z,23.40
2018-01-28T17:50:13.733Z,24.03
2018-01-28T17:52:40.129Z,21.50
2018-01-28T17:55:06.493Z,19.43
2018-01-28T17:57:33.577Z,21.30
2018-01-28T17:59:59.913Z,22.17
2018-01-28T18:02:26.217Z,21.90
2018-01-28T18:04:52.571Z,18.33
2018-01-28T18:07:18.934Z,22.07
2018-01-28T18:09:45.283Z,20.97
2018-01-28T18:12:13.055Z,18.63
2018-01-28T18:14:40.108Z,17.87
2018-01-28T18:17:06.553Z,18.90
2018-01-28T18:19:32.873Z,20.03
2018-01-28T18:21:59.196Z,26.77
2018-01-28T18:24:25.521Z,16.37
2018-01-28T18:26:51.815Z,15.73
2018-01-28T18:29:18.183Z,16.20
2018-01-28T18:31:45.282Z,16.47
2018-01-28T18:34:11.586Z,17.17
2018-01-28T18:36:37.938Z,16.40
2018-01-28T18:39:04.311Z,18.83
2018-01-28T18:41:30.664Z,15.90
2018-01-28T18:43:57.794Z,15.23
2018-01-28T18:46:24.133Z,16.97
2018-01-28T18:48:50.524Z,14.90
2018-01-28T18:51:16.881Z,14.67
2018-01-28T18:53:43.338Z,13.90
2018-01-28T18:56:09.714Z,15.83
2018-01-28T18:58:36.078Z,15.27
2018-01-28T19:01:02.454Z,15.17
2018-01-28T19:03:28.914Z,17.20
2018-01-28T19:05:55.241Z,19.20
2018-01-28T19:08:21.568Z,22.90
2018-01-28T19:10:47.951Z,21.80
2018-01-28T19:13:14.316Z,19.53
2018-01-28T19:15:40.800Z,21.23
2018-01-28T19:18:07.166Z,14.70
2018-01-28T19:20:34.188Z,17.40
2018-01-28T19:23:00.609Z,17.33
2018-01-28T19:25:26.913Z,17.90
2018-01-28T19:27:53.247Z,18.87
2018-01-28T19:30:19.587Z,21.90
2018-01-28T19:32:45.915Z,18.93
2018-01-28T19:35:12.290Z,16.17
2018-01-28T19:37:39.335Z,15.70
2018-01-28T19:40:06.451Z,24.60
2018-01-28T19:42:32.811Z,20.53
2018-01-28T19:44:59.835Z,21.77
2018-01-28T19:47:26.671Z,17.93
2018-01-28T19:49:53.073Z,17.27
2018-01-28T19:52:19.449Z,16.07
2018-01-28T19:54:45.967Z,15.60
2018-01-28T19:57:12.339Z,14.27
2018-01-28T19:59:41.077Z,16.20
2018-01-28T20:02:07.449Z,13.70
2018-01-28T20:04:34.555Z,15.23
2018-01-28T20:07:00.916Z,15.40
2018-01-28T20:09:28.735Z,17.20
2018-01-28T20:11:55.072Z,13.50
2018-01-28T20:14:21.451Z,12.30
2018-01-28T20:16:47.791Z,12.37
2018-01-28T20:19:15.052Z,13.60
2018-01-28T20:21:42.191Z,13.67
2018-01-28T20:24:09.283Z,11.40
2018-01-28T20:26:35.645Z,13.13
2018-01-28T20:29:01.967Z,12.50
2018-01-28T20:31:28.433Z,12.40
2018-01-28T20:33:55.464Z,11.83
2018-01-28T20:36:21.838Z,11.87
2018-01-28T20:38:48.188Z,11.40
2018-01-28T20:41:14.532Z,11.83
2018-01-28T20:43:40.807Z,10.10
2018-01-28T20:46:07.871Z,9.50
2018-01-28T20:48:34.966Z,11.00
2018-01-28T20:51:01.333Z,9.80
2018-01-28T20:53:27.664Z,9.87
2018-01-28T20:55:54.298Z,9.50
2018-01-28T20:58:22.212Z,9.20
2018-01-28T21:00:48.903Z,11.53
2018-01-28T21:03:16.013Z,9.23
2018-01-28T21:05:42.371Z,9.30
2018-01-28T21:08:08.717Z,8.80
2018-01-28T21:10:35.045Z,8.63
2018-01-28T21:13:01.381Z,9.20
2018-01-28T21:15:28.482Z,8.20
2018-01-28T21:17:54.872Z,7.83
2018-01-28T21:20:21.965Z,7.67
2018-01-28T21:22:48.327Z,8.43
2018-01-28T21:25:14.652Z,7.20
2018-01-28T21:27:41.004Z,6.50
2018-01-28T21:30:08.093Z,6.50
2018-01-28T21:32:34.448Z,7.00
2018-01-28T21:35:00.787Z,5.80
2018-01-28T21:37:27.064Z,6.30
2018-01-28T21:39:53.390Z,5.60
2018-01-28T21:42:20.450Z,5.67
2018-01-28T21:44:48.293Z,5.70
2018-01-28T21:47:15.381Z,5.43
2018-01-28T21:49:41.733Z,4.83
2018-01-28T21:52:08.077Z,4.87
2018-01-28T21:54:34.488Z,4.80
2018-01-28T21:57:00.826Z,5.10
2018-01-28T21:59:27.207Z,4.50
2018-01-28T22:01:54.284Z,5.17
2018-01-28T22:04:20.650Z,4.60
2018-01-28T22:06:47.022Z,5.03
2018-01-28T22:09:16.318Z,4.50
2018-01-28T22:11:43.366Z,4.13
2018-01-28T22:14:09.725Z,4.60
2018-01-28T22:16:36.095Z,3.97
2018-01-28T22:19:02.467Z,3.53
2018-01-28T22:21:28.814Z,3.73
2018-01-28T22:23:55.150Z,3.27
2018-01-28T22:26:21.445Z,3.30
2018-01-28T22:28:48.523Z,4.83
2018-01-28T22:31:14.869Z,2.90
2018-01-28T22:33:41.200Z,3.40
2018-01-28T22:36:07.493Z,3.27
2018-01-28T22:38:33.856Z,3.10
2018-01-28T22:41:00.307Z,3.17
2018-01-28T22:43:26.668Z,3.10
2018-01-28T22:45:53.776Z,3.10
2018-01-28T22:48:20.211Z,2.83
2018-01-28T22:50:46.562Z,3.40
2018-01-28T22:53:12.895Z,3.50
2018-01-28T22:55:39.244Z,3.30
2018-01-28T22:58:06.263Z,3.80
2018-01-28T23:00:32.572Z,3.10
2018-01-28T23:02:58.918Z,3.37
2018-01-28T23:05:25.249Z,3.30
2018-01-28T23:07:51.583Z,3.37
2018-01-28T23:10:17.867Z,3.67
2018-01-28T23:12:44.214Z,3.53
2018-01-28T23:15:10.505Z,3.37
2018-01-28T23:17:36.867Z,3.37
2018-01-28T23:20:03.220Z,3.57
2018-01-28T23:22:29.575Z,4.60
2018-01-28T23:24:55.898Z,4.60
2018-01-28T23:27:22.200Z,4.80
2018-01-28T23:29:48.517Z,3.70
2018-01-28T23:32:14.833Z,3.17
2018-01-28T23:34:41.116Z,4.23
2018-01-28T23:37:07.437Z,3.80
2018-01-28T23:39:33.755Z,3.40
2018-01-28T23:42:00.092Z,3.57
2018-01-28T23:44:26.380Z,3.30
2018-01-28T23:46:52.707Z,3.20
2018-01-28T23:49:19.011Z,3.60
2018-01-28T23:51:45.324Z,3.70
2018-01-28T23:54:11.618Z,3.70
2018-01-28T23:56:37.918Z,4.10
2018-01-28T23:59:04.971Z,3.40
